Time;durP1;ratioP1;P1;durP2;ratioP2;P2;SDS_P1;SDS_P2;PMS_P1;PMS_P2;Temp;Humidity;BMP_temperature;BMP_pressure;BME280_temperature;BME280_humidity;BME280_pressure;Samples;Min_cycle;Max_cycle;Signal;HPM_P1;HPM_P2
2022/05/24 00:01:58;;;;;;;17.33;11.15;;;;;;;29.99;74.72;100792.22;5025173;28;70075;-41
2022/05/24 00:04:30;;;;;;;23.90;11.43;;;;;;;30.02;74.94;100791.78;5030176;28;66234;-42
2022/05/24 00:07:01;;;;;;;;;;;;;;;29.75;76.80;100796.47;5027676;28;70055;-42
2022/05/24 00:09:32;;;;;;;13.32;10.27;;;;;;;30.03;76.10;100806.94;5028768;28;65206;-41
2022/05/24 00:12:04;;;;;;;15.88;9.43;;;;;;;30.09;75.16;100808.81;5021704;28;70384;-40
2022/05/24 00:17:24;;;;;;;14.07;9.70;;;;;;;30.13;75.93;100815.44;5027070;28;69409;-40
2022/05/24 00:19:55;;;;;;;15.48;9.15;;;;;;;30.14;76.09;100800.84;5021860;28;65346;-40
2022/05/24 00:22:27;;;;;;;17.20;8.95;;;;;;;30.17;76.02;100811.28;5019932;28;70254;-40
2022/05/24 00:25:01;;;;;;;14.63;9.60;;;;;;;30.20;76.78;100820.78;5028294;28;66811;-41
2022/05/24 00:27:32;;;;;;;17.75;8.88;;;;;;;30.21;76.17;100822.47;5022515;28;69457;-41
2022/05/24 00:30:05;;;;;;;16.92;9.63;;;;;;;30.25;76.10;100823.72;5026830;28;65582;-40
2022/05/24 00:32:36;;;;;;;14.88;8.50;;;;;;;30.26;76.09;100828.94;5023271;28;69978;-40
2022/05/24 00:35:07;;;;;;;17.27;8.75;;;;;;;30.27;75.39;100825.16;5021682;28;66291;-40
2022/05/24 00:37:40;;;;;;;18.48;8.98;;;;;;;30.33;75.83;100836.16;5029388;28;69659;-40
2022/05/24 00:40:35;;;;;;;17.95;8.05;;;;;;;30.36;75.71;100830.31;5025226;28;65610;-40
2022/05/24 00:43:17;;;;;;;12.85;8.18;;;;;;;30.37;75.24;100831.97;5023171;28;70935;-41
2022/05/24 00:45:53;;;;;;;11.52;7.72;;;;;;;30.42;74.78;100848.38;5023598;28;65505;-40
2022/05/24 00:49:02;;;;;;;9.02;7.75;;;;;;;30.33;75.76;100841.56;5031924;28;70336;-41
2022/05/24 00:51:50;;;;;;;10.63;7.38;;;;;;;30.05;74.81;100785.94;5023024;28;66388;-40
2022/05/24 00:54:21;;;;;;;14.32;7.72;;;;;;;30.48;75.02;100845.66;5025730;28;70191;-40
2022/05/24 00:57:30;;;;;;;10.70;7.63;;;;;;;30.47;75.49;100854.81;5022291;28;66630;-39
2022/05/24 01:00:19;;;;;;;8.55;7.40;;;;;;;30.35;75.27;100829.50;5025477;28;70394;-39
2022/05/24 01:02:51;;;;;;;13.07;7.20;;;;;;;30.64;75.17;100855.09;5026726;28;66560;-39
2022/05/24 01:05:27;;;;;;;12.38;7.13;;;;;;;30.35;75.16;100810.53;5026032;28;70561;-40
2022/05/24 01:07:58;;;;;;;15.73;8.00;;;;;;;30.67;74.92;100860.09;5035481;28;66163;-40
2022/05/24 01:10:38;;;;;;;16.27;8.63;;;;;;;30.63;74.38;100858.88;5030718;28;69566;-41
2022/05/24 01:13:20;;;;;;;8.98;6.80;;;;;;;30.53;74.14;100836.84;5024285;28;66118;-40
2022/05/24 01:15:52;;;;;;;11.80;6.95;;;;;;;30.76;74.54;100873.34;5033414;28;69289;-39
2022/05/24 01:18:24;;;;;;;9.82;6.68;;;;;;;30.08;74.56;100766.56;5026534;28;65174;-40
2022/05/24 01:21:02;;;;;;;8.82;6.97;;;;;;;30.82;74.01;100877.94;5032306;28;69560;-39
2022/05/24 01:23:55;;;;;;;14.30;6.40;;;;;;;30.38;73.89;100815.53;5027492;28;65923;-40
2022/05/24 01:26:50;;;;;;;9.80;6.65;;;;;;;30.81;74.12;100892.50;5016556;28;70007;-40
2022/05/24 01:29:24;;;;;;;17.33;6.55;;;;;;;30.48;73.75;100818.59;5023694;28;67443;-39
2022/05/24 01:37:34;;;;;;;10.27;6.32;;;;;;;30.89;73.41;100876.81;5027442;28;69813;-41
2022/05/24 01:40:06;;;;;;;8.97;6.63;;;;;;;30.96;73.35;100878.66;5027969;28;65472;-41
2022/05/24 01:42:37;;;;;;;12.75;6.18;;;;;;;30.96;73.55;100874.06;5022831;28;69395;-40
2022/05/24 01:45:31;;;;;;;11.27;6.10;;;;;;;30.89;73.38;100876.00;5027936;28;66753;-40
2022/05/24 01:48:09;;;;;;;12.80;6.47;;;;;;;30.99;72.87;100884.47;5027697;28;69989;-40
2022/05/24 01:50:43;;;;;;;11.07;5.43;;;;;;;30.64;73.25;100813.66;5047839;28;66291;-40
2022/05/24 01:53:23;;;;;;;8.07;5.95;;;;;;;30.75;73.32;100831.09;5023441;28;69864;-41
2022/05/24 01:56:19;;;;;;;8.48;5.30;;;;;;;30.61;73.70;100803.28;5023343;28;66648;-41
2022/05/24 01:58:54;;;;;;;9.90;5.80;;;;;;;30.71;73.29;100815.28;5032237;28;70226;-41
2022/05/24 02:01:43;;;;;;;9.00;5.65;;;;;;;30.99;73.17;100873.63;5027488;28;66687;-40
2022/05/24 02:04:16;;;;;;;14.07;5.60;;;;;;;31.04;73.26;100881.91;5022205;28;69605;-40
2022/05/24 02:07:05;;;;;;;6.38;5.47;;;;;;;30.64;72.64;100811.78;5022969;28;66298;-41
2022/05/24 02:09:39;;;;;;;10.55;6.20;;;;;;;30.77;72.33;100820.88;5025167;28;70230;-41
2022/05/24 02:12:19;;;;;;;10.57;5.80;;;;;;;30.72;72.57;100814.22;5026430;28;66769;-40
2022/05/24 02:15:01;;;;;;;10.70;6.28;;;;;;;31.08;72.46;100866.88;5024040;28;69114;-40
2022/05/24 02:17:40;;;;;;;10.95;5.60;;;;;;;31.16;72.79;100885.56;5025144;28;64887;-41
2022/05/24 02:20:18;;;;;;;7.70;5.78;;;;;;;31.13;72.43;100864.31;5034917;28;69835;-40
2022/05/24 02:22:49;;;;;;;9.60;5.18;;;;;;;31.24;72.39;100876.31;5032288;28;66279;-40
2022/05/24 02:25:27;;;;;;;6.13;4.90;;;;;;;31.25;72.38;100875.25;5022075;28;69910;-47
2022/05/24 02:27:59;;;;;;;9.43;5.22;;;;;;;31.26;72.29;100867.94;5030851;28;65611;-39
2022/05/24 02:30:32;;;;;;;12.48;5.53;;;;;;;31.00;72.01;100812.13;5026620;28;71858;-40
2022/05/24 02:33:03;;;;;;;11.93;5.55;;;;;;;31.33;71.89;100868.72;5028516;28;65354;-39
2022/05/24 02:35:35;;;;;;;8.77;5.73;;;;;;;31.27;72.09;100853.38;5030155;28;70271;-39
2022/05/24 02:38:06;;;;;;;13.30;5.75;;;;;;;31.36;72.21;100874.56;5030857;28;66112;-40
2022/05/24 02:43:27;;;;;;;15.02;6.30;;;;;;;31.49;71.66;100868.19;5033018;28;65218;-39
2022/05/24 02:45:58;;;;;;;18.02;6.88;;;;;;;31.46;72.11;100857.78;5028294;28;69913;-39
2022/05/24 02:48:30;;;;;;;15.05;6.75;;;;;;;31.52;71.86;100861.47;5027668;28;66902;-39
2022/05/24 02:51:01;;;;;;;12.63;6.17;;;;;;;31.57;71.29;100861.63;5027247;28;70748;-41
2022/05/24 02:53:32;;;;;;;16.30;6.95;;;;;;;31.56;71.05;100857.25;5024981;28;65272;-41
2022/05/24 02:56:05;;;;;;;9.40;5.18;;;;;;;31.22;70.97;100785.47;5024848;28;70069;-41
2022/05/24 02:58:37;;;;;;;18.58;6.35;;;;;;;31.61;71.04;100850.09;5031477;28;65161;-42
2022/05/24 03:01:34;;;;;;;14.27;5.63;;;;;;;31.50;71.34;100841.88;5023534;28;69422;-41
2022/05/24 03:04:05;;;;;;;19.92;7.25;;;;;;;31.66;71.32;100845.88;5024944;28;65250;-41
2022/05/24 03:09:35;;;;;;;9.38;5.30;;;;;;;31.73;71.01;100842.06;5027635;28;67335;-41
2022/05/24 03:14:59;;;;;;;13.82;5.38;;;;;;;31.82;70.79;100845.28;5021748;28;66289;-40
2022/05/24 03:17:32;;;;;;;11.10;5.57;;;;;;;31.82;71.16;100834.44;5026393;28;69334;-41
2022/05/24 03:20:04;;;;;;;12.45;5.65;;;;;;;31.81;71.04;100819.19;5024615;28;65431;-40
2022/05/24 03:22:35;;;;;;;9.45;5.03;;;;;;;31.81;70.52;100811.06;5026564;28;69853;-41
2022/05/24 03:25:07;;;;;;;;;;;;;;;31.62;71.59;100823.81;5026538;28;65386;-40
2022/05/24 03:27:38;;;;;;;9.07;5.45;;;;;;;31.91;70.48;100826.81;5019262;28;69810;-41
2022/05/24 03:30:09;;;;;;;7.80;5.35;;;;;;;31.96;70.41;100818.84;5034250;28;66331;-41
2022/05/24 03:32:40;;;;;;;15.63;5.53;;;;;;;31.95;70.32;100812.56;5032653;28;70024;-41
2022/05/24 03:35:12;;;;;;;8.57;5.53;;;;;;;32.00;69.79;100807.28;5035350;28;66041;-41
2022/05/24 03:37:43;;;;;;;14.38;5.22;;;;;;;32.07;69.80;100803.66;5028320;28;69842;-41
2022/05/24 03:40:14;;;;;;;16.05;5.82;;;;;;;32.06;69.18;100805.53;5030319;28;65550;-41
2022/05/24 03:42:47;;;;;;;14.65;5.82;;;;;;;32.12;69.28;100801.91;5024665;28;69532;-40
2022/05/24 03:45:20;;;;;;;12.52;5.38;;;;;;;32.14;68.94;100798.97;5024043;28;65751;-40
2022/05/24 03:47:51;;;;;;;11.85;5.60;;;;;;;32.18;69.33;100794.72;5025095;28;70138;-40
2022/05/24 03:50:25;;;;;;;11.95;6.18;;;;;;;32.21;68.76;100792.38;5033586;28;66119;-41
2022/05/24 03:52:56;;;;;;;9.20;5.13;;;;;;;32.25;68.41;100792.75;5033258;28;69738;-40
2022/05/24 03:55:27;;;;;;;16.20;5.70;;;;;;;32.24;68.11;100789.22;5029794;28;66598;-41
2022/05/24 03:58:00;;;;;;;15.93;5.63;;;;;;;32.24;67.65;100778.34;5025739;28;69934;-41
2022/05/24 04:00:36;;;;;;;7.32;4.88;;;;;;;31.99;67.78;100726.97;5027670;28;65292;-41
2022/05/24 04:03:08;;;;;;;16.40;5.47;;;;;;;32.29;67.72;100774.94;5029380;28;70555;-39
2022/05/24 04:05:47;;;;;;;9.27;5.03;;;;;;;32.23;67.53;100765.00;5028304;28;65501;-39
2022/05/24 04:08:24;;;;;;;8.13;5.00;;;;;;;31.92;67.94;100703.69;5025536;28;70521;-42
2022/05/24 04:11:01;;;;;;;10.88;5.38;;;;;;;31.97;67.75;100715.50;5026968;28;66304;-40
2022/05/24 04:13:33;;;;;;;13.45;5.10;;;;;;;32.27;67.81;100755.34;5026310;28;70089;-40
2022/05/24 04:16:09;;;;;;;11.70;5.65;;;;;;;32.30;67.31;100754.88;5029986;28;65194;-40
2022/05/24 04:18:40;;;;;;;14.00;5.90;;;;;;;32.31;66.93;100739.41;5024632;28;70776;-42
2022/05/24 04:21:12;;;;;;;16.60;6.18;;;;;;;32.30;67.40;100738.59;5025753;28;65712;-41
2022/05/24 04:23:44;;;;;;;9.98;4.97;;;;;;;32.27;67.39;100739.06;5026293;28;69374;-39
2022/05/24 04:26:15;;;;;;;25.08;6.15;;;;;;;32.25;67.20;100743.88;5027901;28;66360;-39
2022/05/24 04:28:46;;;;;;;10.30;5.10;;;;;;;32.25;67.51;100741.19;5027790;28;70004;-42
2022/05/24 04:31:18;;;;;;;6.88;4.38;;;;;;;32.26;66.79;100735.53;5031452;28;65335;-40
2022/05/24 04:33:49;;;;;;;15.90;4.90;;;;;;;32.29;66.77;100734.22;5024495;28;70958;-40
2022/05/24 04:36:21;;;;;;;9.38;4.80;;;;;;;32.28;66.91;100725.25;5034205;28;65527;-40
2022/05/24 04:38:52;;;;;;;9.73;4.63;;;;;;;32.09;66.91;100671.28;5020594;28;70018;-42
2022/05/24 04:44:12;;;;;;;11.57;3.70;;;;;;;32.44;66.98;100728.34;5030599;28;70239;-40
2022/05/24 04:49:32;;;;;;;10.52;3.95;;;;;;;32.23;63.37;100702.56;5030276;28;70245;-39
2022/05/24 04:52:04;;;;;;;12.23;3.53;;;;;;;32.15;62.03;100697.47;5023073;28;67766;-40
2022/05/24 04:54:37;;;;;;;7.78;3.50;;;;;;;32.04;60.62;100708.09;5026794;28;70323;-40
2022/05/24 04:57:08;;;;;;;11.23;3.65;;;;;;;31.91;58.94;100674.88;5028730;28;65226;-40
2022/05/24 04:59:40;;;;;;;5.03;3.20;;;;;;;31.92;58.38;100688.25;5023579;28;69771;-40
2022/05/24 05:02:19;;;;;;;5.47;3.05;;;;;;;31.88;57.42;100706.03;5024738;28;65512;-40
2022/05/24 05:04:52;;;;;;;8.65;3.60;;;;;;;31.79;56.52;100693.84;5028846;28;70079;-40
2022/05/24 05:07:23;;;;;;;6.05;2.92;;;;;;;31.66;55.74;100677.75;5031898;28;65807;-41
2022/05/24 05:09:55;;;;;;;7.53;2.78;;;;;;;31.69;55.14;100699.00;5031071;28;70100;-42
2022/05/24 05:12:26;;;;;;;6.78;2.40;;;;;;;31.62;54.33;100677.38;5026455;28;66527;-41
2022/05/24 05:14:57;;;;;;;5.43;2.85;;;;;;;31.55;53.81;100677.47;5033358;28;69168;-41
2022/05/24 05:17:28;;;;;;;4.33;2.53;;;;;;;31.53;53.73;100674.16;5027255;28;65290;-39
2022/05/24 05:20:01;;;;;;;4.85;3.33;;;;;;;31.49;53.16;100678.41;5033335;28;70314;-40
2022/05/24 05:22:32;;;;;;;4.70;2.47;;;;;;;31.48;52.29;100671.34;5030521;28;66574;-40
2022/05/24 05:25:03;;;;;;;6.93;2.70;;;;;;;31.50;51.95;100677.34;5031900;28;69776;-39
2022/05/24 05:27:34;;;;;;;6.32;2.55;;;;;;;31.40;51.62;100663.53;5026269;28;66007;-39
2022/05/24 05:32:55;;;;;;;7.47;2.65;;;;;;;31.39;51.11;100678.13;5030497;28;67111;-38
2022/05/24 05:35:26;;;;;;;6.38;2.30;;;;;;;31.38;51.05;100671.06;5026239;28;70066;-39
2022/05/24 05:37:56;;;;;;;3.15;2.17;;;;;;;31.39;50.67;100668.09;5027927;28;66136;-39
2022/05/24 05:40:27;;;;;;;5.18;2.35;;;;;;;31.34;50.29;100665.25;5031415;28;70009;-39
2022/05/24 05:42:58;;;;;;;5.82;2.60;;;;;;;31.28;49.80;100659.88;5030355;28;67497;-39
2022/05/24 05:45:29;;;;;;;3.33;2.20;;;;;;;31.31;50.14;100664.84;5026101;28;70057;-38
2022/05/24 05:48:00;;;;;;;3.33;2.07;;;;;;;31.14;49.25;100654.63;5034414;28;65286;-40
2022/05/24 05:50:31;;;;;;;3.05;2.03;;;;;;;31.26;49.69;100662.00;5033288;28;70347;-39
2022/05/24 05:53:04;;;;;;;9.27;2.17;;;;;;;31.20;49.11;100643.94;5024798;28;65345;-41
2022/05/24 05:55:37;;;;;;;10.30;2.47;;;;;;;31.26;48.98;100653.84;5028402;28;69946;-40
2022/05/24 05:58:09;;;;;;;3.05;2.15;;;;;;;31.25;48.58;100649.50;5026297;28;66135;-39
2022/05/24 06:00:41;;;;;;;3.53;1.98;;;;;;;31.18;48.16;100636.06;5033241;28;69740;-39
2022/05/24 06:03:12;;;;;;;4.95;2.47;;;;;;;31.22;47.93;100649.97;5027857;28;65361;-39
2022/05/24 06:05:46;;;;;;;3.50;2.47;;;;;;;31.19;48.19;100647.72;5031740;28;70334;-41
2022/05/24 06:08:21;;;;;;;2.55;1.95;;;;;;;31.16;47.55;100641.69;5027991;28;66693;-40
2022/05/24 06:11:09;;;;;;;3.42;2.22;;;;;;;31.19;47.76;100639.59;5035565;28;69984;-44
2022/05/24 06:13:49;;;;;;;5.38;2.20;;;;;;;31.21;47.50;100643.72;5037572;28;65597;-41
2022/05/24 06:16:20;;;;;;;9.03;2.77;;;;;;;31.18;47.42;100630.63;5022583;28;69995;-39
2022/05/24 06:18:51;;;;;;;4.20;2.43;;;;;;;31.18;47.60;100633.34;5027867;28;66223;-41
2022/05/24 06:21:22;;;;;;;3.65;2.35;;;;;;;31.09;47.16;100616.59;5025119;28;70002;-39
2022/05/24 06:23:53;;;;;;;4.47;2.28;;;;;;;31.18;47.10;100627.94;5027572;28;65286;-38
2022/05/24 06:26:24;;;;;;;3.25;2.33;;;;;;;31.19;47.51;100620.63;5023284;28;69965;-38
2022/05/24 06:28:57;;;;;;;4.78;2.38;;;;;;;31.13;47.17;100609.63;5023141;28;64848;-39
2022/05/24 06:31:28;;;;;;;4.18;2.13;;;;;;;31.21;46.96;100623.94;5033313;28;70494;-38
2022/05/24 06:33:59;;;;;;;3.38;2.13;;;;;;;31.22;46.75;100622.88;5025897;28;65306;-38
2022/05/24 06:36:30;;;;;;;3.57;2.10;;;;;;;31.22;46.63;100606.63;5028588;28;70193;-39
2022/05/24 06:39:01;;;;;;;2.88;2.13;;;;;;;31.30;46.41;100609.00;5027252;28;65921;-39
2022/05/24 06:41:32;;;;;;;3.30;2.33;;;;;;;31.30;46.38;100611.72;5030162;28;70052;-39
2022/05/24 06:44:04;;;;;;;4.23;2.40;;;;;;;31.27;46.35;100585.91;5028687;28;66201;-39
2022/05/24 06:46:35;;;;;;;4.68;2.15;;;;;;;31.25;46.23;100584.47;5027341;28;70420;-39
2022/05/24 06:49:06;;;;;;;4.25;2.45;;;;;;;31.32;45.61;100593.34;5024959;28;65127;-40
2022/05/24 06:51:37;;;;;;;2.43;2.20;;;;;;;31.36;45.94;100594.56;5032642;28;69561;-39
2022/05/24 06:54:08;;;;;;;5.18;2.35;;;;;;;31.33;45.05;100586.84;5028241;28;66225;-39
2022/05/24 06:56:38;;;;;;;3.63;2.50;;;;;;;31.35;45.35;100595.59;5043217;28;69253;-40
2022/05/24 07:04:48;;;;;;;4.03;2.40;;;;;;;31.41;44.84;100583.84;5069059;28;65811;-38
2022/05/24 07:07:19;;;;;;;5.40;2.40;;;;;;;31.38;45.20;100578.91;5068320;28;70139;-38
2022/05/24 07:09:50;;;;;;;5.78;2.70;;;;;;;31.45;44.82;100587.75;5071234;28;66199;-39
2022/05/24 07:12:22;;;;;;;4.47;2.20;;;;;;;31.35;45.24;100568.50;5065313;28;68929;-39
2022/05/24 07:14:54;;;;;;;4.85;2.85;;;;;;;31.42;44.71;100574.66;5055768;28;65797;-39
2022/05/24 07:17:26;;;;;;;3.47;2.45;;;;;;;31.47;44.77;100577.50;5064546;28;70291;-39
2022/05/24 07:19:59;;;;;;;4.43;2.10;;;;;;;31.39;44.76;100575.94;5071859;28;62092;-39
2022/05/24 07:22:31;;;;;;;3.28;2.28;;;;;;;31.47;45.06;100582.94;5067248;28;71762;-38
2022/05/24 07:25:02;;;;;;;3.47;2.20;;;;;;;31.43;44.66;100573.63;5059681;28;65676;-38
2022/05/24 07:27:33;;;;;;;3.53;2.42;;;;;;;31.48;44.33;100586.47;5069231;28;70298;-39
2022/05/24 07:30:04;;;;;;;2.97;2.30;;;;;;;31.48;44.63;100584.59;5050560;28;65139;-39
2022/05/24 07:32:35;;;;;;;7.45;2.45;;;;;;;31.47;44.60;100579.41;5069021;28;70492;-38
2022/05/24 07:35:06;;;;;;;3.17;1.88;;;;;;;31.49;44.68;100578.09;5071968;28;65360;-38
2022/05/24 07:37:37;;;;;;;9.17;2.00;;;;;;;31.48;44.30;100564.78;5072805;28;69526;-38
2022/05/24 07:45:50;;;;;;;4.70;2.13;;;;;;;31.43;44.43;100565.47;5070409;28;66214;-39
2022/05/24 07:48:21;;;;;;;3.15;2.22;;;;;;;31.45;44.28;100566.06;5055692;28;68928;-39
2022/05/24 07:50:52;;;;;;;4.97;1.83;;;;;;;31.35;44.18;100544.09;5063998;27;65453;-38
2022/05/24 07:53:23;;;;;;;7.18;1.98;;;;;;;31.42;44.26;100547.56;5065873;28;69446;-38
2022/05/24 07:55:55;;;;;;;4.03;2.30;;;;;;;31.45;43.94;100551.69;5060092;28;65071;-38
2022/05/24 07:58:27;;;;;;;6.10;2.15;;;;;;;31.50;44.27;100554.53;5051218;28;69799;-39
2022/05/24 08:00:59;;;;;;;13.40;2.45;;;;;;;31.49;44.58;100551.00;5058676;28;65612;-39
2022/05/24 08:03:30;;;;;;;3.17;2.30;;;;;;;31.49;45.03;100542.88;5068563;28;69441;-39
2022/05/24 08:06:01;;;;;;;14.00;3.08;;;;;;;31.47;45.06;100538.72;5072736;28;65992;-39
2022/05/24 08:08:33;;;;;;;3.78;2.08;;;;;;;31.44;44.85;100540.03;5067046;28;70540;-39
2022/05/24 08:11:05;;;;;;;5.03;2.28;;;;;;;31.48;44.68;100535.81;5066467;28;65715;-38
2022/05/24 08:13:37;;;;;;;2.78;1.88;;;;;;;31.47;44.67;100538.72;5069441;28;70410;-40
2022/05/24 08:16:07;;;;;;;4.30;2.92;;;;;;;31.44;44.07;100540.03;5071755;28;65893;-40
2022/05/24 08:18:39;;;;;;;8.55;2.42;;;;;;;31.23;44.34;100510.69;5050955;28;69772;-38
2022/05/24 08:21:10;;;;;;;3.33;2.17;;;;;;;31.47;44.06;100555.00;5065884;28;65671;-39
2022/05/24 08:23:46;;;;;;;10.45;2.30;;;;;;;31.43;44.20;100542.97;5063555;28;70171;-38
2022/05/24 08:26:18;;;;;;;8.90;2.17;;;;;;;31.46;44.14;100543.34;5069189;28;66176;-38
2022/05/24 08:28:48;;;;;;;7.35;2.08;;;;;;;31.57;45.00;100539.81;5055471;28;69781;-38
2022/05/24 08:31:20;;;;;;;4.32;2.20;;;;;;;31.75;45.40;100546.19;5054662;28;65901;-38
2022/05/24 08:33:51;;;;;;;11.15;2.55;;;;;;;31.86;46.45;100539.13;5068264;28;69363;-38
2022/05/24 08:36:22;;;;;;;4.50;1.95;;;;;;;31.98;47.29;100534.56;5065656;28;65613;-38
2022/05/24 08:38:53;;;;;;;10.48;1.92;;;;;;;32.02;47.82;100514.88;5069335;28;69879;-39
2022/05/24 08:41:52;;;;;;;3.53;1.63;;;;;;;32.12;48.28;100532.44;5070469;28;66083;-39
2022/05/24 08:50:19;;;;;;;11.40;3.42;;;;;;;32.55;56.68;100539.38;5064946;28;70029;-39
2022/05/24 08:53:09;;;;;;;4.80;3.13;;;;;;;32.29;57.44;100468.25;5067355;28;65917;-40
2022/05/24 08:55:43;;;;;;;9.23;3.30;;;;;;;32.72;58.08;100529.41;5057209;28;69990;-41
2022/05/24 08:58:36;;;;;;;5.95;3.42;;;;;;;32.67;58.75;100527.41;5063107;28;66547;-38
2022/05/24 09:01:27;;;;;;;5.47;3.22;;;;;;;32.78;58.88;100520.28;5068714;28;69876;-39
2022/05/24 09:03:57;;;;;;;6.70;4.05;;;;;;;32.90;58.91;100526.50;5049424;28;65398;-40
2022/05/24 09:06:56;;;;;;;8.65;3.72;;;;;;;32.68;59.42;100492.91;5043295;28;70133;-40
2022/05/24 09:09:37;;;;;;;5.50;3.17;;;;;;;33.03;59.48;100540.88;5060589;28;66052;-39
2022/05/24 09:12:08;;;;;;;5.78;3.08;;;;;;;33.08;59.38;100543.72;5072191;28;69987;-40
2022/05/24 09:15:11;;;;;;;11.68;3.22;;;;;;;33.06;59.81;100545.84;5070202;28;66601;-39
2022/05/24 09:18:00;;;;;;;7.10;3.45;;;;;;;33.16;60.16;100543.31;5073913;28;69486;-39
2022/05/24 09:20:35;;;;;;;4.53;2.83;;;;;;;33.22;60.57;100549.66;5067617;28;65998;-38
2022/05/24 09:23:51;;;;;;;5.72;2.92;;;;;;;33.10;60.66;100542.41;5056233;28;69983;-38
2022/05/24 09:26:24;;;;;;;16.48;4.40;;;;;;;33.24;61.08;100545.63;5049460;28;66387;-39
2022/05/24 09:28:56;;;;;;;12.55;4.32;;;;;;;33.26;61.11;100535.31;5060618;28;70184;-40
2022/05/24 09:31:39;;;;;;;13.63;3.80;;;;;;;33.26;60.88;100540.75;5072071;28;66426;-40
2022/05/24 09:34:19;;;;;;;15.57;3.72;;;;;;;33.27;61.17;100542.44;5065511;28;69656;-39
2022/05/24 09:36:55;;;;;;;8.07;4.25;;;;;;;33.29;61.27;100551.16;5071019;28;65378;-40
2022/05/24 09:39:31;;;;;;;4.63;3.63;;;;;;;33.07;61.61;100514.84;5063528;28;70189;-40
2022/05/24 09:42:06;;;;;;;8.82;4.30;;;;;;;33.34;61.77;100553.13;5065462;28;66758;-39
2022/05/24 09:44:57;;;;;;;7.05;3.72;;;;;;;33.29;62.64;100562.03;5068114;28;69636;-39
2022/05/24 09:47:35;;;;;;;7.28;3.97;;;;;;;33.38;62.74;100570.63;5068636;28;66168;-40
2022/05/24 09:50:31;;;;;;;7.55;3.90;;;;;;;33.31;63.53;100568.03;5064212;28;70038;-40
2022/05/24 09:53:12;;;;;;;7.45;4.03;;;;;;;33.43;63.28;100561.72;5063804;28;65692;-40
2022/05/24 09:55:59;;;;;;;9.65;4.25;;;;;;;33.38;63.41;100567.91;5050824;28;69137;-39
2022/05/24 09:58:35;;;;;;;10.32;4.20;;;;;;;33.47;63.24;100565.59;5067573;28;65905;-40
2022/05/24 10:01:12;;;;;;;14.25;4.18;;;;;;;33.50;63.03;100578.72;5074736;28;70414;-39
2022/05/24 10:03:48;;;;;;;6.38;4.00;;;;;;;33.14;63.72;100520.97;5055013;28;66675;-38
2022/05/24 10:06:30;;;;;;;7.70;4.25;;;;;;;33.12;63.90;100526.66;5064255;28;70579;-40
2022/05/24 10:09:19;;;;;;;5.50;3.70;;;;;;;33.25;64.15;100554.59;5061336;28;66801;-39
2022/05/24 10:11:57;;;;;;;5.90;3.80;;;;;;;33.57;64.07;100609.31;5064429;28;70174;-38
2022/05/24 10:15:11;;;;;;;9.57;4.40;;;;;;;33.12;64.12;100544.84;5064285;27;65994;-38
2022/05/24 10:18:24;;;;;;;12.93;4.15;;;;;;;33.32;64.25;100580.59;5057261;28;69187;-38
2022/05/24 10:21:13;;;;;;;6.70;3.63;;;;;;;33.50;63.94;100600.47;5063987;28;66151;-38
2022/05/24 10:23:52;;;;;;;11.90;3.70;;;;;;;33.53;64.08;100605.44;5071133;28;70111;-38
2022/05/24 10:26:56;;;;;;;5.43;3.75;;;;;;;33.44;64.45;100606.88;5062362;28;66533;-38
2022/05/24 10:29:41;;;;;;;6.10;3.70;;;;;;;33.51;64.28;100629.28;5073461;28;70140;-39
2022/05/24 10:39:14;;;;;;;7.75;3.83;;;;;;;33.41;65.34;100621.78;5073564;28;66599;-39
2022/05/24 10:41:58;;;;;;;7.97;4.03;;;;;;;33.43;65.71;100618.81;5057513;28;69707;-39
2022/05/24 10:45:04;;;;;;;4.93;4.35;;;;;;;33.31;66.22;100625.13;5050481;28;66151;-39
2022/05/24 10:47:49;;;;;;;6.72;4.00;;;;;;;33.44;66.10;100634.06;5068724;28;70191;-38
2022/05/24 10:50:31;;;;;;;7.22;4.72;;;;;;;33.38;65.92;100633.16;5067625;28;66646;-38
2022/05/24 10:53:09;;;;;;;9.93;5.35;;;;;;;33.12;65.68;100593.78;5064704;28;70042;-38
2022/05/24 10:55:57;;;;;;;8.25;4.93;;;;;;;33.36;65.07;100638.81;5040442;28;64965;-39
2022/05/24 10:58:33;;;;;;;7.38;4.75;;;;;;;33.05;64.94;100593.09;5067431;28;69795;-39
2022/05/24 11:01:09;;;;;;;7.45;5.05;;;;;;;33.40;64.96;100649.22;5064487;28;65156;-38
2022/05/24 11:03:47;;;;;;;7.03;4.95;;;;;;;33.38;64.77;100660.34;5065198;28;70198;-38
2022/05/24 11:06:32;;;;;;;8.23;5.50;;;;;;;33.37;64.82;100670.38;5060104;28;66387;-38
2022/05/24 11:09:09;;;;;;;11.88;5.28;;;;;;;33.05;64.79;100614.84;5059556;28;70294;-39
2022/05/24 11:11:44;;;;;;;16.00;5.15;;;;;;;33.30;63.39;100658.84;5067082;28;65579;-38
2022/05/24 11:14:24;;;;;;;11.02;6.60;;;;;;;33.39;63.66;100667.41;5065371;28;69883;-39
2022/05/24 11:16:56;;;;;;;19.08;6.80;;;;;;;33.38;63.58;100669.31;5062578;28;66303;-38
2022/05/24 11:19:36;;;;;;;11.75;7.80;;;;;;;33.40;62.96;100676.41;5065011;28;70520;-37
2022/05/24 11:22:17;;;;;;;16.80;8.77;;;;;;;33.40;63.09;100679.13;5057741;28;66096;-38
2022/05/24 11:24:53;;;;;;;18.75;8.68;;;;;;;33.43;62.83;100681.34;5067761;28;69954;-37
2022/05/24 11:27:34;;;;;;;16.20;8.25;;;;;;;33.44;62.41;100688.47;5062776;27;65987;-37
2022/05/24 11:30:27;;;;;;;20.13;8.18;;;;;;;33.06;62.33;100644.47;5071069;28;70387;-37
2022/05/24 11:33:06;;;;;;;13.77;9.02;;;;;;;33.43;62.39;100701.19;5066662;28;66370;-37
2022/05/24 11:35:45;;;;;;;14.15;8.68;;;;;;;33.05;62.36;100642.03;5065474;28;69481;-37
2022/05/24 11:38:41;;;;;;;15.48;9.30;;;;;;;33.29;62.30;100700.69;5070875;28;66370;-37
2022/05/24 11:41:12;;;;;;;16.23;9.57;;;;;;;33.41;62.23;100710.69;5067617;28;69456;-37
2022/05/24 11:43:50;;;;;;;21.60;9.57;;;;;;;33.42;62.10;100706.91;5048815;28;65523;-37
2022/05/24 11:46:46;;;;;;;22.13;9.52;;;;;;;33.36;62.58;100712.22;5026143;28;69840;-37
2022/05/24 11:49:21;;;;;;;21.27;10.25;;;;;;;33.42;62.80;100723.22;5067866;28;65850;-39
2022/05/24 11:51:54;;;;;;;14.82;8.75;;;;;;;33.31;62.87;100723.00;5053155;28;70215;-38
2022/05/24 11:54:25;;;;;;;15.15;8.25;;;;;;;33.17;61.24;100727.06;5065577;28;65825;-39
2022/05/24 11:57:16;;;;;;;11.40;8.70;;;;;;;32.85;59.33;100732.06;5061342;28;70360;-38
2022/05/24 11:59:52;;;;;;;12.77;8.37;;;;;;;32.79;57.83;100730.25;5063568;28;66420;-39
2022/05/24 12:02:26;;;;;;;15.15;8.25;;;;;;;32.77;57.46;100727.78;5060418;28;70230;-38
2022/05/24 12:08:22;;;;;;;13.30;8.02;;;;;;;32.56;55.71;100741.94;5067795;28;70059;-38
2022/05/24 12:11:10;;;;;;;11.73;7.30;;;;;;;32.16;54.68;100708.13;5072411;28;66244;-38
2022/05/24 12:13:46;;;;;;;13.07;7.35;;;;;;;32.36;54.01;100758.53;5064568;28;70133;-39
2022/05/24 12:16:46;;;;;;;9.82;8.07;;;;;;;32.20;53.41;100754.59;5068315;28;66444;-39
2022/05/24 12:19:35;;;;;;;7.70;6.90;;;;;;;32.09;52.25;100767.09;5070669;28;70571;-39
2022/05/24 12:22:11;;;;;;;13.98;7.50;;;;;;;32.12;51.72;100763.09;5066661;28;65499;-39
2022/05/24 12:24:44;;;;;;;8.27;7.03;;;;;;;32.08;51.27;100767.34;5071913;28;70236;-40
2022/05/24 12:27:43;;;;;;;8.25;7.47;;;;;;;31.90;50.95;100777.16;5064124;28;65321;-39
2022/05/24 12:30:24;;;;;;;11.95;7.18;;;;;;;31.73;50.45;100739.00;5063125;28;70078;-39
2022/05/24 12:32:56;;;;;;;11.50;7.00;;;;;;;31.91;50.36;100786.97;5056560;28;65545;-38
2022/05/24 12:35:27;;;;;;;11.02;7.68;;;;;;;31.86;50.14;100797.63;5047923;28;69300;-38
2022/05/24 12:37:58;;;;;;;7.85;7.18;;;;;;;31.81;49.74;100805.63;5063584;28;65538;-37
2022/05/24 12:40:32;;;;;;;9.35;6.75;;;;;;;31.81;50.47;100811.06;5055313;28;68961;-38
2022/05/24 12:43:13;;;;;;;7.95;7.18;;;;;;;31.46;51.50;100760.19;5069317;28;65532;-39
2022/05/24 12:45:47;;;;;;;8.00;6.78;;;;;;;31.79;51.05;100826.75;5066306;28;69322;-39
2022/05/24 12:48:18;;;;;;;10.27;7.85;;;;;;;31.77;50.30;100818.00;5072422;28;65703;-39
2022/05/24 12:50:49;;;;;;;9.40;7.43;;;;;;;31.75;50.01;100822.81;5054870;28;69742;-39
2022/05/24 12:53:23;;;;;;;10.27;7.40;;;;;;;31.76;49.54;100819.03;5057117;28;65750;-39
2022/05/24 12:56:08;;;;;;;9.43;7.97;;;;;;;31.67;49.18;100829.38;5054680;28;69973;-38
2022/05/24 12:58:48;;;;;;;12.32;7.70;;;;;;;31.67;48.69;100836.69;5061009;28;66592;-38